Terminal Aerodrome Forecast
Issued by NWS

Current Version | Previous Version | Text Only | Print | Product List | Glossary On
Versions: 1 2 3 4 5 6 7 8 9 10 11 12 13 14 15 16 17 18 19 20 21 22 23 24 25 26 27 28 29 30 31 32 33 34 35 36 37 38 39 40 41 42 43 44 45 46 47 48
000
FTUS42 KRAH 232327 CCA
TAFRWI
TAF COR
KRWI 232327Z 2400/2424 02008KT 5SM BR SCT005 OVC015
      TEMPO 2400/2403 2SM -RA BR OVC005
     FM240600 36005KT 1 1/2SM BR OVC002
     FM240900 VRB04KT 1/2SM FG OVC001
     FM241200 VRB04KT 1 1/2SM BR OVC002
     FM241300 10006KT 3SM BR OVC004
     FM241800 15010KT P6SM BKN012=

USA.gov is the U.S. government's official web portal to all federal, state and local government web resources and services.